createdAt,value
2022-08-11T00:18:18.866Z,82.33
2022-08-11T00:20:45.661Z,84.25
2022-08-11T00:23:18.276Z,83.68
2022-08-11T00:25:50.012Z,83.23
2022-08-11T00:28:33.974Z,83.74
2022-08-11T00:31:07.110Z,83.42
2022-08-11T00:33:44.605Z,85.39
2022-08-11T00:36:16.111Z,86.26
2022-08-11T00:38:45.047Z,86.46
2022-08-11T00:41:31.501Z,86.24
2022-08-11T00:44:15.641Z,86.58
2022-08-11T00:47:14.320Z,86.40
2022-08-11T00:49:58.614Z,86.45
2022-08-11T00:52:40.305Z,84.19
2022-08-11T00:55:31.165Z,86.27
2022-08-11T00:58:26.454Z,84.73
2022-08-11T01:01:10.414Z,86.62
2022-08-11T01:03:59.862Z,87.45
2022-08-11T01:06:38.707Z,86.09
2022-08-11T01:09:21.947Z,84.51
2022-08-11T01:12:14.050Z,84.71
2022-08-11T01:15:05.326Z,84.24
2022-08-11T01:17:50.393Z,84.42
2022-08-11T01:20:53.778Z,85.87
2022-08-11T01:23:42.015Z,86.85
2022-08-11T01:26:35.940Z,86.93
2022-08-11T01:29:49.299Z,87.74
2022-08-11T01:32:29.307Z,86.63
2022-08-11T01:35:27.731Z,84.95
2022-08-11T01:38:12.655Z,85.86
2022-08-11T01:40:52.473Z,87.65
2022-08-11T01:44:11.354Z,87.35
2022-08-11T01:46:49.241Z,87.02
2022-08-11T01:50:07.710Z,86.32
2022-08-11T01:52:34.913Z,86.45
2022-08-11T01:55:26.844Z,85.79
2022-08-11T01:58:17.903Z,85.99
2022-08-11T02:01:06.947Z,85.93
2022-08-11T02:03:51.285Z,86.20
2022-08-11T02:06:58.289Z,85.25
2022-08-11T02:09:49.575Z,85.60
2022-08-11T02:12:32.152Z,85.05
2022-08-11T02:15:10.736Z,86.88
2022-08-11T02:17:58.833Z,86.61
2022-08-11T02:21:02.776Z,86.43
2022-08-11T02:24:04.404Z,87.25
2022-08-11T02:26:47.108Z,87.65
2022-08-11T02:29:21.754Z,87.65
2022-08-11T02:32:33.822Z,87.41
2022-08-11T02:35:10.043Z,87.82
2022-08-11T02:37:51.533Z,88.46
2022-08-11T02:40:20.952Z,88.95
2022-08-11T02:43:02.937Z,88.37
2022-08-11T02:45:29.590Z,88.03
2022-08-11T02:48:53.595Z,88.49
2022-08-11T02:51:42.227Z,88.52
2022-08-11T02:54:14.998Z,88.73
2022-08-11T02:56:44.804Z,88.94
2022-08-11T02:59:35.910Z,88.98
2022-08-11T03:02:27.919Z,88.58
2022-08-11T03:04:57.546Z,87.95
2022-08-11T03:07:54.755Z,88.92
2022-08-11T03:11:06.107Z,88.85
2022-08-11T03:13:54.921Z,88.79
2022-08-11T03:16:45.610Z,89.15
2022-08-11T03:19:12.436Z,88.73
2022-08-11T03:22:03.195Z,89.16
2022-08-11T03:24:42.522Z,88.93
2022-08-11T03:27:21.564Z,89.08
2022-08-11T03:30:05.519Z,89.30
2022-08-11T03:33:10.870Z,89.56
2022-08-11T03:35:43.106Z,90.09
2022-08-11T03:38:15.180Z,90.57
2022-08-11T03:42:01.697Z,90.86
2022-08-11T03:44:21.691Z,91.06
2022-08-11T03:47:08.590Z,90.92
2022-08-11T03:49:55.128Z,89.97
2022-08-11T03:52:40.572Z,89.80
2022-08-11T03:55:31.774Z,89.43
2022-08-11T03:58:13.620Z,89.37
2022-08-11T04:00:58.120Z,90.38
2022-08-11T04:03:31.152Z,92.42
2022-08-11T04:06:29.025Z,92.07
2022-08-11T04:09:16.978Z,92.20
2022-08-11T04:11:55.838Z,92.72
2022-08-11T04:14:59.929Z,93.64
2022-08-11T04:17:29.279Z,93.36
2022-08-11T04:20:32.849Z,93.21
2022-08-11T04:24:35.554Z,93.15
2022-08-11T04:26:29.407Z,92.75
2022-08-11T04:30:05.235Z,92.90
2022-08-11T04:32:46.309Z,92.94
2022-08-11T04:35:31.426Z,92.82
2022-08-11T04:38:09.137Z,92.81
2022-08-11T04:40:38.699Z,90.76
2022-08-11T04:43:23.559Z,89.14
2022-08-11T04:46:27.540Z,90.56
2022-08-11T04:49:33.288Z,90.88
2022-08-11T04:52:45.255Z,90.34
2022-08-11T04:55:51.448Z,92.20
2022-08-11T04:59:02.596Z,92.83
2022-08-11T05:01:41.305Z,92.68
2022-08-11T05:04:51.345Z,92.85
2022-08-11T05:07:48.431Z,92.83
2022-08-11T05:10:53.269Z,91.82
2022-08-11T05:13:45.657Z,93.01
2022-08-11T05:16:34.174Z,91.81
2022-08-11T05:19:21.658Z,91.04
2022-08-11T05:22:16.043Z,90.96
2022-08-11T05:25:04.389Z,90.78
2022-08-11T05:27:55.417Z,88.41
2022-08-11T05:30:47.137Z,89.54
2022-08-11T05:33:43.179Z,90.26
2022-08-11T05:36:25.436Z,90.49
2022-08-11T05:39:18.095Z,91.72
2022-08-11T05:42:03.236Z,92.05
2022-08-11T05:44:49.309Z,90.98
2022-08-11T05:47:44.703Z,88.82
2022-08-11T05:50:33.017Z,87.83
2022-08-11T05:53:20.181Z,87.12
2022-08-11T05:56:06.822Z,86.25
2022-08-11T05:58:42.650Z,84.03
2022-08-11T06:01:12.127Z,80.93
2022-08-11T06:04:01.498Z,78.03
2022-08-11T06:06:29.439Z,76.16
2022-08-11T06:08:57.922Z,72.86
2022-08-11T06:11:44.183Z,72.56
2022-08-11T06:14:13.030Z,72.96
2022-08-11T06:16:41.942Z,72.16
2022-08-11T06:19:09.770Z,71.62
2022-08-11T06:21:37.747Z,70.32
2022-08-11T06:24:15.386Z,68.85
2022-08-11T06:27:09.177Z,66.54
2022-08-11T06:29:48.045Z,61.34
2022-08-11T06:32:16.229Z,61.72
2022-08-11T06:35:02.210Z,61.04
2022-08-11T06:37:45.350Z,59.49
2022-08-11T06:40:15.768Z,58.73
2022-08-11T06:42:55.084Z,57.94
2022-08-11T06:45:24.894Z,55.65
2022-08-11T06:47:52.431Z,57.16
2022-08-11T06:50:40.302Z,56.01
2022-08-11T06:53:12.796Z,55.87
2022-08-11T06:56:02.225Z,53.50
2022-08-11T06:58:51.547Z,53.94
2022-08-11T07:01:56.563Z,58.39
2022-08-11T07:04:31.757Z,55.32
2022-08-11T07:07:32.727Z,55.94
2022-08-11T07:10:42.976Z,54.23
2022-08-11T07:14:05.476Z,54.38
2022-08-11T07:17:28.052Z,52.92
2022-08-11T07:20:17.131Z,53.13
2022-08-11T07:23:10.442Z,52.03
2022-08-11T07:25:59.290Z,52.61
2022-08-11T07:28:48.649Z,51.95
2022-08-11T07:31:24.358Z,50.02
2022-08-11T07:34:05.014Z,50.51
2022-08-11T07:36:46.083Z,49.59
2022-08-11T07:39:21.143Z,49.77
2022-08-11T07:41:50.997Z,50.50
2022-08-11T07:44:18.331Z,50.82
2022-08-11T07:47:05.915Z,49.53
2022-08-11T07:49:55.190Z,50.03
2022-08-11T07:52:32.705Z,49.03
2022-08-11T07:55:50.857Z,50.68
2022-08-11T07:58:34.776Z,50.47
2022-08-11T08:01:30.461Z,50.63
2022-08-11T08:04:17.565Z,50.53
2022-08-11T08:07:03.483Z,48.86
2022-08-11T08:09:52.719Z,50.70
2022-08-11T08:12:43.444Z,51.08
2022-08-11T08:15:31.428Z,51.96
2022-08-11T08:18:09.041Z,52.86
2022-08-11T08:20:52.449Z,52.13
2022-08-11T08:23:33.528Z,52.48
2022-08-11T08:26:26.562Z,52.00
2022-08-11T08:28:55.204Z,53.02
2022-08-11T08:31:22.665Z,51.93
2022-08-11T08:33:49.903Z,50.29
2022-08-11T08:36:18.699Z,52.02
2022-08-11T08:38:50.125Z,49.68
2022-08-11T08:41:23.034Z,49.00
2022-08-11T08:43:56.420Z,52.29
2022-08-11T08:46:33.131Z,48.95
2022-08-11T08:49:02.804Z,48.23
2022-08-11T08:52:00.930Z,52.04
2022-08-11T08:54:30.321Z,51.32
2022-08-11T08:56:57.933Z,51.81
2022-08-11T08:59:27.132Z,52.17
2022-08-11T09:02:14.483Z,48.31
2022-08-11T09:04:45.572Z,49.45
2022-08-11T09:07:15.571Z,49.61
2022-08-11T09:09:48.943Z,47.58
2022-08-11T09:12:17.471Z,48.71
2022-08-11T09:15:05.798Z,47.77
2022-08-11T09:17:43.544Z,46.15
2022-08-11T09:20:18.674Z,44.63
2022-08-11T09:26:19.405Z,45.42
2022-08-11T09:28:47.614Z,42.78
2022-08-11T09:31:16.071Z,44.72
2022-08-11T09:33:44.566Z,45.05
2022-08-11T09:36:31.985Z,44.48
2022-08-11T09:39:19.751Z,44.06
2022-08-11T09:42:01.518Z,40.04
2022-08-11T09:44:49.807Z,41.04
2022-08-11T09:47:29.593Z,45.64
2022-08-11T09:50:01.871Z,45.51
2022-08-11T09:52:36.456Z,44.52
2022-08-11T09:55:11.294Z,44.55
2022-08-11T09:58:03.989Z,45.18
2022-08-11T10:00:37.551Z,45.18
2022-08-11T10:03:11.975Z,44.60
2022-08-11T10:05:58.647Z,45.05
2022-08-11T10:08:30.051Z,43.46
2022-08-11T10:10:57.792Z,45.98
2022-08-11T10:14:04.965Z,43.94
2022-08-11T10:16:26.292Z,45.42
2022-08-11T10:18:55.242Z,44.37
2022-08-11T10:21:42.371Z,43.71
2022-08-11T10:24:29.534Z,44.80
2022-08-11T10:27:00.633Z,43.91
2022-08-11T10:29:51.120Z,46.13
2022-08-11T10:32:57.401Z,44.68
2022-08-11T10:35:28.190Z,41.83
2022-08-11T10:38:08.911Z,43.86
2022-08-11T10:40:39.177Z,44.25
2022-08-11T10:43:10.447Z,42.31
2022-08-11T10:45:58.175Z,40.58
2022-08-11T10:48:28.089Z,43.35
2022-08-11T10:51:14.286Z,43.25
2022-08-11T10:54:12.395Z,41.35
2022-08-11T10:56:58.600Z,42.62
2022-08-11T10:59:28.164Z,42.57
2022-08-11T11:01:55.468Z,41.88
2022-08-11T11:04:33.968Z,41.54
2022-08-11T11:07:14.934Z,41.20
2022-08-11T11:09:48.660Z,41.29
2022-08-11T11:12:46.851Z,41.60
2022-08-11T11:15:36.414Z,42.88
2022-08-11T11:18:13.890Z,42.38
2022-08-11T11:20:51.504Z,42.05
2022-08-11T11:23:38.237Z,42.96
2022-08-11T11:26:42.311Z,45.76
2022-08-11T11:29:54.739Z,44.56
2022-08-11T11:32:32.978Z,43.67
2022-08-11T11:35:14.702Z,42.10
2022-08-11T11:38:03.588Z,44.96
2022-08-11T11:40:32.665Z,41.51
2022-08-11T11:43:00.523Z,42.14
2022-08-11T11:45:27.470Z,41.38
2022-08-11T11:47:55.116Z,43.79
2022-08-11T11:50:24.642Z,41.47
2022-08-11T11:52:55.375Z,41.25
2022-08-11T11:55:24.067Z,42.09
2022-08-11T11:58:11.672Z,42.49
2022-08-11T12:01:04.414Z,39.72
2022-08-11T12:03:32.314Z,43.94
2022-08-11T12:05:59.826Z,36.82
2022-08-11T12:08:27.953Z,43.72
2022-08-11T12:11:34.454Z,41.07
2022-08-11T12:14:10.739Z,37.34
2022-08-11T12:16:40.584Z,35.34
2022-08-11T12:19:14.393Z,37.40
2022-08-11T12:22:00.917Z,35.83
2022-08-11T12:24:48.260Z,37.63
2022-08-11T12:27:24.110Z,36.10
2022-08-11T12:29:56.186Z,37.12
2022-08-11T12:32:35.032Z,34.62
2022-08-11T12:35:02.642Z,37.26
2022-08-11T12:37:36.997Z,36.12
2022-08-11T12:40:43.427Z,39.78
2022-08-11T12:43:37.235Z,39.23
2022-08-11T12:46:14.285Z,39.25
2022-08-11T12:49:04.633Z,35.34
2022-08-11T12:52:00.886Z,36.38
2022-08-11T12:55:02.468Z,35.20
2022-08-11T12:58:05.773Z,37.25
2022-08-11T13:00:52.193Z,37.72
2022-08-11T13:03:38.534Z,35.67
2022-08-11T13:06:06.042Z,39.18
2022-08-11T13:08:38.415Z,37.98
2022-08-11T13:11:23.448Z,39.79
2022-08-11T13:13:57.107Z,36.69
2022-08-11T13:16:30.749Z,35.96
2022-08-11T13:19:01.318Z,36.46
2022-08-11T13:21:29.431Z,40.81
2022-08-11T13:24:01.507Z,39.36
2022-08-11T13:26:43.389Z,39.71
2022-08-11T13:29:18.153Z,41.43
2022-08-11T13:31:45.891Z,39.19
2022-08-11T13:34:13.034Z,38.53
2022-08-11T13:36:40.819Z,38.65
2022-08-11T13:39:07.970Z,40.37
2022-08-11T13:41:39.452Z,39.01
2022-08-11T13:44:12.434Z,41.10
2022-08-11T13:46:44.424Z,40.70
2022-08-11T13:49:11.773Z,40.00
2022-08-11T13:51:40.190Z,42.49
2022-08-11T13:54:09.246Z,38.92
2022-08-11T13:56:41.115Z,40.06
2022-08-11T13:59:08.995Z,39.40
2022-08-11T14:02:19.523Z,38.19
2022-08-11T14:04:35.944Z,36.28
2022-08-11T14:07:06.957Z,38.85
2022-08-11T14:09:37.688Z,37.05
2022-08-11T14:12:31.221Z,39.26
2022-08-11T14:15:08.832Z,38.87
2022-08-11T14:17:48.992Z,38.44
2022-08-11T14:20:38.323Z,37.57
2022-08-11T14:23:05.949Z,37.09
2022-08-11T14:25:59.428Z,38.01
2022-08-11T14:28:31.125Z,39.21
2022-08-11T14:31:03.065Z,40.42
2022-08-11T14:34:00.883Z,38.64
2022-08-11T14:36:21.577Z,39.93
2022-08-11T14:38:49.709Z,39.34
2022-08-11T14:41:36.574Z,37.88
2022-08-11T14:44:22.815Z,37.76
2022-08-11T14:47:05.762Z,38.59
2022-08-11T14:50:09.423Z,40.29
2022-08-11T14:52:43.339Z,39.25
2022-08-11T14:55:30.656Z,39.60
2022-08-11T14:57:57.645Z,37.66
2022-08-11T15:00:25.051Z,39.93
2022-08-11T15:03:12.129Z,41.33
2022-08-11T15:05:56.955Z,40.04
2022-08-11T15:08:56.688Z,39.81
2022-08-11T15:11:46.953Z,37.89
2022-08-11T15:14:14.020Z,37.48
2022-08-11T15:17:02.702Z,40.82
2022-08-11T15:19:40.249Z,41.99
2022-08-11T15:22:28.034Z,42.02
2022-08-11T15:24:55.536Z,39.41
2022-08-11T15:27:41.865Z,42.35
2022-08-11T15:30:33.441Z,40.29
2022-08-11T15:33:23.117Z,42.24
2022-08-11T15:36:09.618Z,43.06
2022-08-11T15:38:42.457Z,43.39
2022-08-11T15:41:29.898Z,44.21
2022-08-11T15:44:15.596Z,43.37
2022-08-11T15:46:49.233Z,43.63
2022-08-11T15:49:23.805Z,41.64
2022-08-11T15:52:03.553Z,41.21
2022-08-11T15:54:33.645Z,42.07
2022-08-11T15:57:02.387Z,42.36
2022-08-11T15:59:50.618Z,44.09
2022-08-11T16:02:39.224Z,42.48
2022-08-11T16:05:13.927Z,41.55
2022-08-11T16:08:01.481Z,42.13
2022-08-11T16:10:30.967Z,42.74
2022-08-11T16:13:05.689Z,43.15
2022-08-11T16:15:58.055Z,43.03
2022-08-11T16:18:40.713Z,44.95
2022-08-11T16:21:10.927Z,44.11
2022-08-11T16:24:00.625Z,46.51
2022-08-11T16:27:11.373Z,46.06
2022-08-11T16:29:18.204Z,47.19
2022-08-11T16:32:06.549Z,46.30
2022-08-11T16:34:53.480Z,45.82
2022-08-11T16:37:41.800Z,47.18
2022-08-11T16:40:09.935Z,46.49
2022-08-11T16:43:08.516Z,47.01
2022-08-11T16:45:57.194Z,47.54
2022-08-11T16:48:35.133Z,48.68
2022-08-11T16:51:10.490Z,46.97
2022-08-11T16:53:59.779Z,47.30
2022-08-11T16:56:35.455Z,46.03
2022-08-11T16:59:17.577Z,46.99
2022-08-11T17:01:54.493Z,47.32
2022-08-11T17:05:12.634Z,47.62
2022-08-11T17:08:02.402Z,47.47
2022-08-11T17:11:21.278Z,48.19
2022-08-11T17:13:54.182Z,48.68
2022-08-11T17:16:27.219Z,49.55
2022-08-11T17:19:11.717Z,49.75
2022-08-11T17:22:03.261Z,49.11
2022-08-11T17:24:32.436Z,49.59
2022-08-11T17:27:00.848Z,49.77
2022-08-11T17:29:54.359Z,48.89
2022-08-11T17:32:56.862Z,47.26
2022-08-11T17:35:32.908Z,49.07
2022-08-11T17:38:18.627Z,49.65
2022-08-11T17:41:23.049Z,48.95
2022-08-11T17:44:10.765Z,48.96
2022-08-11T17:47:01.062Z,49.63
2022-08-11T17:49:37.716Z,48.51
2022-08-11T17:52:25.307Z,48.98
2022-08-11T17:55:13.495Z,47.95
2022-08-11T17:58:00.187Z,49.65
2022-08-11T18:00:27.380Z,49.64
2022-08-11T18:03:13.315Z,50.73
2022-08-11T18:05:44.530Z,50.96
2022-08-11T18:08:31.937Z,48.29
2022-08-11T18:12:06.894Z,48.41
2022-08-11T18:14:27.634Z,50.41
2022-08-11T18:17:13.534Z,50.98
2022-08-11T18:19:59.205Z,51.25
2022-08-11T18:22:52.043Z,50.87
2022-08-11T18:25:45.605Z,51.60
2022-08-11T18:28:33.739Z,48.92
2022-08-11T18:31:21.120Z,50.62
2022-08-11T18:34:11.873Z,48.62
2022-08-11T18:37:00.562Z,49.59
2022-08-11T18:39:56.071Z,50.09
2022-08-11T18:42:43.126Z,50.07
2022-08-11T18:45:38.455Z,49.13
2022-08-11T18:48:37.403Z,56.41
2022-08-11T18:51:31.265Z,59.78
2022-08-11T18:54:26.250Z,59.08
2022-08-11T18:57:14.659Z,54.69
2022-08-11T19:00:02.551Z,56.41
2022-08-11T19:02:50.254Z,51.42
2022-08-11T19:06:31.981Z,55.64
2022-08-11T19:08:49.635Z,53.61
2022-08-11T19:11:42.368Z,52.58
2022-08-11T19:14:31.242Z,58.43
2022-08-11T19:17:44.053Z,56.98
2022-08-11T19:20:27.411Z,58.33
2022-08-11T19:23:15.123Z,55.30
2022-08-11T19:26:03.578Z,53.28
2022-08-11T19:28:50.223Z,54.33
2022-08-11T19:31:38.840Z,53.91
2022-08-11T19:34:29.204Z,53.75
2022-08-11T19:37:14.527Z,55.67
2022-08-11T19:40:01.243Z,52.88
2022-08-11T19:42:47.291Z,54.58
2022-08-11T19:45:34.670Z,54.19
2022-08-11T19:48:31.757Z,54.17
2022-08-11T19:51:18.310Z,54.67
2022-08-11T19:54:04.481Z,51.47
2022-08-11T19:56:51.039Z,53.20
2022-08-11T19:59:38.707Z,52.87
2022-08-11T20:02:24.407Z,53.90
2022-08-11T20:05:10.030Z,54.52
2022-08-11T20:07:56.209Z,55.05
2022-08-11T20:10:44.545Z,53.96
2022-08-11T20:13:32.215Z,54.65
2022-08-11T20:16:20.690Z,54.74
2022-08-11T20:19:08.711Z,54.66
2022-08-11T20:21:55.854Z,54.48
2022-08-11T20:24:42.036Z,54.30
2022-08-11T20:27:30.100Z,52.28
2022-08-11T20:30:17.551Z,53.08
2022-08-11T20:33:03.716Z,53.89
2022-08-11T20:35:51.488Z,53.74
2022-08-11T20:38:40.680Z,53.90
2022-08-11T20:41:28.717Z,54.16
2022-08-11T20:44:15.695Z,54.94
2022-08-11T20:47:02.307Z,53.05
2022-08-11T20:49:55.241Z,52.58
2022-08-11T20:52:47.436Z,56.88
2022-08-11T20:55:52.244Z,53.90
2022-08-11T20:59:13.310Z,54.13
2022-08-11T21:01:47.277Z,53.37
2022-08-11T21:04:37.570Z,51.61
2022-08-11T21:07:41.405Z,52.13
2022-08-11T21:10:30.073Z,52.30
2022-08-11T21:13:25.358Z,50.95
2022-08-11T21:16:16.438Z,51.40
2022-08-11T21:19:14.457Z,52.93
2022-08-11T21:22:00.862Z,53.92
2022-08-11T21:24:49.671Z,52.97
2022-08-11T21:27:38.339Z,53.35
2022-08-11T21:30:23.933Z,53.93
2022-08-11T21:33:10.184Z,54.14
2022-08-11T21:35:56.006Z,53.78
2022-08-11T21:38:41.139Z,53.14
2022-08-11T21:41:28.033Z,53.59
2022-08-11T21:44:15.653Z,53.29
2022-08-11T21:47:00.723Z,53.02
2022-08-11T21:49:49.134Z,52.74
2022-08-11T21:52:35.444Z,53.20
2022-08-11T21:55:21.675Z,52.30
2022-08-11T21:58:07.652Z,53.21
2022-08-11T22:00:53.278Z,51.66
2022-08-11T22:03:49.280Z,53.36
2022-08-11T22:06:36.601Z,54.01
2022-08-11T22:09:22.219Z,54.96
2022-08-11T22:12:33.432Z,54.27
2022-08-11T22:15:13.486Z,54.65
2022-08-11T22:17:58.603Z,54.83
2022-08-11T22:20:45.428Z,55.97
2022-08-11T22:23:36.262Z,55.84
2022-08-11T22:26:22.865Z,55.96
2022-08-11T22:29:08.349Z,56.90
2022-08-11T22:31:56.006Z,57.37
2022-08-11T22:34:52.799Z,56.92
2022-08-11T22:37:41.688Z,56.33
2022-08-11T22:40:28.543Z,57.44
2022-08-11T22:43:14.104Z,57.52
2022-08-11T22:45:59.477Z,57.86
2022-08-11T22:48:47.768Z,57.53
2022-08-11T22:51:33.970Z,56.13
2022-08-11T22:54:21.529Z,56.60
2022-08-11T22:57:07.979Z,57.92
2022-08-11T22:59:55.756Z,57.49
2022-08-11T23:02:41.626Z,57.25
2022-08-11T23:05:27.830Z,57.80
2022-08-11T23:08:14.423Z,56.85
2022-08-11T23:11:00.241Z,57.69
2022-08-11T23:13:46.642Z,59.29
2022-08-11T23:16:31.780Z,58.89
2022-08-11T23:20:07.206Z,59.11
2022-08-11T23:22:22.441Z,57.33
2022-08-11T23:25:07.655Z,57.29
2022-08-11T23:27:54.741Z,59.52
2022-08-11T23:30:40.378Z,58.07
2022-08-11T23:33:26.745Z,57.48
2022-08-11T23:36:35.851Z,57.03
2022-08-11T23:39:17.928Z,59.89
2022-08-11T23:42:03.110Z,57.47
2022-08-11T23:44:48.138Z,58.03
2022-08-11T23:47:50.328Z,57.99
2022-08-11T23:50:36.408Z,58.73
2022-08-11T23:53:22.570Z,57.37
2022-08-11T23:56:07.784Z,58.52
2022-08-11T23:58:53.103Z,57.99
